Time;durP1;ratioP1;P1;durP2;ratioP2;P2;SDS_P1;SDS_P2;PMS_P1;PMS_P2;Temp;Humidity;BMP_temperature;BMP_pressure;BME280_temperature;BME280_humidity;BME280_pressure;Samples;Min_cycle;Max_cycle;Signal;HPM_P1;HPM_P2
2023/10/07 00:03:09;;;;;;;8.23;3.57;;;14.00;99.90;;;;;;5012541;28;20194;-43
2023/10/07 00:05:35;;;;;;;9.00;3.30;;;14.00;99.90;;;;;;5013611;28;20682;-43
2023/10/07 00:08:21;;;;;;;6.77;3.00;;;13.90;99.90;;;;;;5013327;28;20166;-41
2023/10/07 00:10:51;;;;;;;6.53;3.37;;;13.90;99.90;;;;;;5013760;28;20200;-43
2023/10/07 00:13:19;;;;;;;8.50;3.90;;;13.90;99.90;;;;;;5012776;28;20228;-42
2023/10/07 00:15:48;;;;;;;8.17;3.37;;;13.90;99.90;;;;;;5013553;28;20202;-44
2023/10/07 00:18:58;;;;;;;10.83;3.60;;;13.90;99.90;;;;;;5013916;28;20571;-44
2023/10/07 00:21:27;;;;;;;13.03;3.67;;;13.80;99.90;;;;;;5015582;28;20193;-42
2023/10/07 00:24:00;;;;;;;7.10;3.57;;;13.80;99.90;;;;;;5014857;28;20272;-43
2023/10/07 00:26:26;;;;;;;6.33;3.13;;;13.70;99.90;;;;;;5015242;28;20157;-44
2023/10/07 00:29:00;;;;;;;6.73;3.23;;;13.70;99.90;;;;;;5015608;28;20166;-43
2023/10/07 00:31:27;;;;;;;13.83;3.67;;;13.70;99.90;;;;;;5014978;28;20197;-43
2023/10/07 00:36:58;;;;;;;8.67;3.83;;;13.70;99.90;;;;;;5008540;28;20244;-43
2023/10/07 00:39:31;;;;;;;11.00;4.30;;;13.70;99.90;;;;;;5013608;28;20535;-43
2023/10/07 00:42:07;;;;;;;8.50;3.43;;;13.80;99.90;;;;;;5012350;28;20556;-41
2023/10/07 00:44:37;;;;;;;7.73;3.60;;;13.70;99.90;;;;;;5011883;28;20205;-42
2023/10/07 00:49:53;;;;;;;6.07;2.93;;;13.70;99.90;;;;;;5012169;28;20209;-43
2023/10/07 00:52:28;;;;;;;8.03;3.50;;;13.70;99.90;;;;;;4995638;28;20585;-44
2023/10/07 00:55:27;;;;;;;10.70;3.20;;;13.70;99.90;;;;;;5011292;28;20272;-43
2023/10/07 00:58:04;;;;;;;10.40;3.47;;;13.70;99.90;;;;;;5012513;28;20209;-41
2023/10/07 01:00:49;;;;;;;6.17;3.47;;;13.70;99.90;;;;;;5013216;28;20235;-43
2023/10/07 01:03:51;;;;;;;8.07;3.60;;;13.70;99.90;;;;;;5012449;28;20174;-47
2023/10/07 01:06:28;;;;;;;8.50;3.83;;;13.70;99.90;;;;;;5013424;28;20507;-43
2023/10/07 01:09:07;;;;;;;6.30;3.57;;;13.80;99.90;;;;;;4995386;28;20188;-44
2023/10/07 01:11:40;;;;;;;13.77;4.90;;;13.80;99.90;;;;;;5013000;28;20165;-41
2023/10/07 01:14:48;;;;;;;9.13;4.27;;;14.50;99.90;;;;;;5012175;28;20538;-41
2023/10/07 01:17:14;;;;;;;9.93;4.10;;;13.70;99.90;;;;;;4991919;28;20201;-43
2023/10/07 01:19:52;;;;;;;11.87;4.70;;;13.80;99.90;;;;;;5013719;28;20209;-41
2023/10/07 01:22:35;;;;;;;6.30;4.30;;;13.80;99.90;;;;;;5016512;28;20177;-41
2023/10/07 01:25:18;;;;;;;15.10;6.17;;;13.80;99.90;;;;;;5015012;28;20574;-42
2023/10/07 01:27:53;;;;;;;14.70;6.53;;;13.80;99.90;;;;;;5008833;28;20154;-40
2023/10/07 01:30:26;;;;;;;10.87;6.40;;;13.70;99.90;;;;;;5016685;28;20201;-42
2023/10/07 01:33:01;;;;;;;9.23;5.47;;;13.80;99.90;;;;;;5016625;28;20161;-42
2023/10/07 01:35:38;;;;;;;13.70;6.20;;;13.70;99.90;;;;;;5017164;28;20173;-44
2023/10/07 01:38:07;;;;;;;12.43;4.63;;;13.70;99.90;;;;;;5016961;28;20563;-49
2023/10/07 01:41:06;;;;;;;10.63;4.07;;;13.70;99.90;;;;;;5017086;28;20300;-47
2023/10/07 01:44:00;;;;;;;10.37;4.23;;;13.70;99.90;;;;;;5017314;28;20507;-46
2023/10/07 01:46:56;;;;;;;11.60;4.60;;;13.60;99.90;;;;;;5016805;28;20170;-48
2023/10/07 01:49:30;;;;;;;9.27;4.37;;;13.70;99.90;;;;;;5016497;28;20610;-46
2023/10/07 01:52:03;;;;;;;11.67;4.33;;;13.70;99.90;;;;;;4999137;28;20705;-47
2023/10/07 01:54:33;;;;;;;10.47;4.17;;;13.70;99.90;;;;;;5012795;28;20228;-46
2023/10/07 01:57:04;;;;;;;10.73;3.97;;;13.70;99.90;;;;;;5015791;28;20579;-47
2023/10/07 01:59:31;;;;;;;10.40;4.67;;;13.70;99.90;;;;;;5016504;28;20208;-47
2023/10/07 02:02:25;;;;;;;9.77;4.53;;;13.70;99.90;;;;;;5015328;28;20184;-47
2023/10/07 02:04:57;;;;;;;9.47;4.43;;;13.70;99.90;;;;;;5016499;28;20645;-46
2023/10/07 02:07:29;;;;;;;7.97;3.73;;;13.70;99.90;;;;;;5014731;28;20192;-47
2023/10/07 02:09:56;;;;;;;8.40;3.70;;;13.70;99.90;;;;;;5011912;28;20205;-47
2023/10/07 02:12:32;;;;;;;9.97;4.40;;;13.70;99.90;;;;;;5016200;28;20169;-48
2023/10/07 02:15:03;;;;;;;8.23;4.60;;;13.70;99.90;;;;;;4998711;28;20687;-47
2023/10/07 02:17:28;;;;;;;9.63;4.07;;;13.70;99.90;;;;;;4998539;28;20629;-47
2023/10/07 02:19:57;;;;;;;9.97;4.17;;;13.70;99.90;;;;;;5015897;28;20246;-49
2023/10/07 02:22:28;;;;;;;10.20;4.80;;;13.70;99.90;;;;;;5016330;28;20182;-48
2023/10/07 02:25:02;;;;;;;10.97;4.57;;;13.70;99.90;;;;;;5015605;28;20220;-49
2023/10/07 02:27:31;;;;;;;10.10;4.57;;;13.70;99.90;;;;;;5016225;28;20161;-48
2023/10/07 02:29:57;;;;;;;8.47;4.27;;;13.80;99.90;;;;;;5014267;28;20243;-48
2023/10/07 02:32:23;;;;;;;11.93;4.37;;;13.80;99.90;;;;;;5013734;28;20592;-43
2023/10/07 02:34:56;;;;;;;6.93;5.00;;;13.80;99.90;;;;;;5016074;28;20274;-43
2023/10/07 02:37:50;;;;;;;9.60;4.57;;;13.90;99.90;;;;;;5015286;28;20233;-44
2023/10/07 02:40:52;;;;;;;10.53;5.10;;;13.90;99.90;;;;;;4997329;28;20232;-44
2023/10/07 02:43:10;;;;;;;13.60;5.33;;;13.90;99.90;;;;;;5012855;28;20216;-44
2023/10/07 02:45:39;;;;;;;13.57;4.93;;;13.90;99.90;;;;;;5015168;28;20677;-42
2023/10/07 02:48:19;;;;;;;9.27;4.93;;;13.90;99.90;;;;;;5014744;28;20190;-42
2023/10/07 02:50:51;;;;;;;16.37;5.77;;;13.90;99.90;;;;;;5014721;28;20287;-41
2023/10/07 02:53:18;;;;;;;14.27;6.13;;;13.90;99.90;;;;;;5015214;28;20204;-43
2023/10/07 02:55:58;;;;;;;10.40;5.43;;;13.90;99.90;;;;;;4997585;28;20189;-42
2023/10/07 02:58:35;;;;;;;13.83;5.97;;;13.90;99.90;;;;;;4996969;28;20194;-41
2023/10/07 03:01:13;;;;;;;13.47;6.07;;;13.90;99.90;;;;;;5013320;28;20590;-40
2023/10/07 03:03:49;;;;;;;13.03;5.83;;;13.90;99.90;;;;;;5015109;28;20190;-42
2023/10/07 03:06:18;;;;;;;14.10;5.73;;;14.00;99.90;;;;;;5014909;28;20157;-43
2023/10/07 03:09:00;;;;;;;12.67;5.73;;;13.90;99.90;;;;;;5014536;28;20170;-41
2023/10/07 03:12:27;;;;;;;11.70;5.50;;;14.00;99.90;;;;;;5014650;28;20269;-43
2023/10/07 03:15:04;;;;;;;13.57;5.93;;;13.90;99.90;;;;;;5014370;28;20193;-42
2023/10/07 03:17:39;;;;;;;11.73;5.07;;;13.90;99.90;;;;;;5015189;28;20227;-42
2023/10/07 03:31:34;;;;;;;13.53;5.57;;;14.00;99.90;;;;;;5051677;28;20220;-48
2023/10/07 03:34:12;;;;;;;11.97;5.57;;;14.00;99.90;;;;;;5053095;28;20227;-46
2023/10/07 03:42:23;;;;;;;12.43;6.27;;;14.10;99.90;;;;;;5039840;28;20175;-47
2023/10/07 03:44:52;;;;;;;14.50;5.47;;;14.10;99.90;;;;;;5054017;28;20659;-50
2023/10/07 03:47:18;;;;;;;14.67;5.53;;;14.10;99.90;;;;;;5054691;28;20601;-47
2023/10/07 03:49:58;;;;;;;9.10;4.87;;;14.10;99.90;;;;;;5036221;28;20227;-47
2023/10/07 03:52:28;;;;;;;9.30;4.40;;;14.20;99.90;;;;;;5054512;28;20632;-48
2023/10/07 03:54:54;;;;;;;9.93;4.73;;;14.20;99.90;;;;;;5054203;28;20181;-48
2023/10/07 03:57:47;;;;;;;9.97;4.63;;;14.20;99.90;;;;;;5033517;28;20250;-46
2023/10/07 04:00:15;;;;;;;10.40;5.20;;;14.20;99.90;;;;;;5036793;28;20204;-47
2023/10/07 04:03:34;;;;;;;11.03;4.93;;;14.20;99.90;;;;;;5036013;28;20593;-48
2023/10/07 04:06:04;;;;;;;9.27;5.40;;;14.30;99.90;;;;;;5053688;28;20196;-49
2023/10/07 04:08:32;;;;;;;9.20;5.20;;;14.30;99.90;;;;;;5053551;28;20184;-48
2023/10/07 04:11:01;;;;;;;12.23;5.20;;;14.30;99.90;;;;;;5035762;28;20199;-46
2023/10/07 04:13:26;;;;;;;6.93;5.10;;;14.30;99.90;;;;;;5035935;28;20271;-46
2023/10/07 04:15:53;;;;;;;10.20;5.73;;;14.30;99.90;;;;;;5036339;28;20211;-48
2023/10/07 04:18:34;;;;;;;13.03;5.07;;;14.30;99.90;;;;;;5054486;28;20172;-47
2023/10/07 04:21:01;;;;;;;9.47;4.93;;;14.30;99.90;;;;;;5036047;28;20206;-48
2023/10/07 04:23:33;;;;;;;9.50;5.40;;;14.30;99.90;;;;;;5053941;28;20180;-48
2023/10/07 04:26:10;;;;;;;9.00;4.47;;;14.30;99.90;;;;;;5053014;28;20203;-47
2023/10/07 04:28:41;;;;;;;11.63;5.40;;;14.30;99.90;;;;;;5035289;28;20210;-47
2023/10/07 04:31:17;;;;;;;14.13;5.07;;;14.40;99.90;;;;;;5053025;28;20218;-50
2023/10/07 04:33:53;;;;;;;16.90;5.90;;;14.40;99.90;;;;;;5035605;28;20168;-46
2023/10/07 04:36:54;;;;;;;10.17;4.83;;;14.40;99.90;;;;;;5053023;28;20669;-48
2023/10/07 04:39:27;;;;;;;7.17;4.60;;;14.40;99.90;;;;;;5052409;28;20303;-47
2023/10/07 04:41:58;;;;;;;12.87;5.50;;;14.40;99.90;;;;;;5035095;28;20191;-47
2023/10/07 04:52:31;;;;;;;10.60;5.20;;;14.40;99.90;;;;;;5036922;28;20160;-47
2023/10/07 04:55:26;;;;;;;10.10;5.37;;;14.40;99.90;;;;;;5037952;28;20184;-46
2023/10/07 05:02:58;;;;;;;15.13;5.50;;;14.40;99.90;;;;;;5041047;28;20224;-46
2023/10/07 05:05:30;;;;;;;13.67;5.43;;;14.40;99.90;;;;;;5039113;28;20200;-48
2023/10/07 05:08:11;;;;;;;8.33;5.27;;;14.40;99.90;;;;;;5038724;28;20180;-48
2023/10/07 05:10:41;;;;;;;12.17;5.60;;;14.40;99.90;;;;;;5056758;28;20546;-46
2023/10/07 05:13:08;;;;;;;11.73;5.20;;;14.40;99.90;;;;;;5038505;28;20180;-48
2023/10/07 05:15:41;;;;;;;10.53;5.87;;;14.40;99.90;;;;;;5056947;28;20182;-46
2023/10/07 05:21:59;;;;;;;12.27;5.43;;;14.40;99.90;;;;;;5008644;28;20187;-49
2023/10/07 05:24:32;;;;;;;10.83;6.00;;;14.40;99.90;;;;;;5056984;28;20196;-48
2023/10/07 05:27:17;;;;;;;11.27;5.83;;;14.40;99.90;;;;;;5054948;28;20185;-48
2023/10/07 05:29:46;;;;;;;14.57;5.23;;;14.40;99.90;;;;;;5056815;28;20220;-49
2023/10/07 05:32:17;;;;;;;13.87;5.53;;;14.40;99.90;;;;;;5039068;28;20210;-47
2023/10/07 05:34:49;;;;;;;9.33;4.70;;;14.40;99.90;;;;;;5054718;28;20557;-47
2023/10/07 05:37:15;;;;;;;13.67;5.00;;;14.40;99.90;;;;;;5022496;28;20223;-49
2023/10/07 05:39:46;;;;;;;8.70;4.63;;;14.40;99.90;;;;;;5056255;28;20238;-47
2023/10/07 05:43:02;;;;;;;10.67;5.20;;;14.40;99.90;;;;;;5056547;28;20213;-48
2023/10/07 05:45:36;;;;;;;7.40;4.47;;;14.40;99.90;;;;;;5056389;28;20615;-48
2023/10/07 05:48:03;;;;;;;9.73;4.80;;;14.40;99.90;;;;;;5056493;28;20181;-48
2023/10/07 05:50:43;;;;;;;12.00;4.40;;;14.40;99.90;;;;;;5056398;28;20203;-47
2023/10/07 05:53:15;;;;;;;11.83;5.23;;;14.50;99.90;;;;;;5057277;28;20173;-45
2023/10/07 05:55:43;;;;;;;8.50;4.70;;;14.40;99.90;;;;;;5039531;28;20639;-46
2023/10/07 05:58:12;;;;;;;12.67;4.70;;;14.50;99.90;;;;;;5038298;28;20218;-49
2023/10/07 06:00:40;;;;;;;10.80;4.93;;;14.50;99.90;;;;;;5038308;28;20209;-48
2023/10/07 06:03:06;;;;;;;11.93;4.87;;;14.50;99.90;;;;;;5021919;28;20187;-47
2023/10/07 06:05:38;;;;;;;7.33;4.63;;;14.60;99.90;;;;;;5036739;28;20202;-48
2023/10/07 06:08:10;;;;;;;17.27;4.93;;;14.60;99.90;;;;;;5039384;28;20172;-47
2023/10/07 06:10:38;;;;;;;7.33;4.20;;;14.60;99.90;;;;;;5039165;28;20586;-48
2023/10/07 06:13:08;;;;;;;9.93;4.00;;;14.60;99.90;;;;;;5021877;28;20172;-48
2023/10/07 06:15:37;;;;;;;16.67;4.57;;;14.70;99.90;;;;;;5054845;28;20548;-46
2023/10/07 06:18:05;;;;;;;7.87;4.20;;;14.70;99.90;;;;;;5056282;28;20188;-48
2023/10/07 06:26:44;;;;;;;10.40;4.30;;;14.70;99.90;;;;;;5055845;28;20238;-47
2023/10/07 06:29:18;;;;;;;9.63;4.33;;;14.70;99.90;;;;;;5055833;28;20207;-47
2023/10/07 06:34:44;;;;;;;8.60;4.20;;;14.70;99.90;;;;;;5028252;28;20222;-48
2023/10/07 06:37:10;;;;;;;7.77;4.63;;;14.70;99.90;;;;;;5055567;28;20164;-47
2023/10/07 06:39:37;;;;;;;11.03;4.10;;;14.80;99.90;;;;;;5055454;28;20263;-47
2023/10/07 06:42:03;;;;;;;9.30;4.10;;;14.80;99.90;;;;;;5055466;28;20172;-48
2023/10/07 06:44:30;;;;;;;9.30;4.40;;;14.80;99.90;;;;;;5055026;28;20560;-47
2023/10/07 06:46:57;;;;;;;8.43;3.97;;;14.80;99.90;;;;;;5037552;28;20183;-49
2023/10/07 06:49:27;;;;;;;14.53;4.80;;;14.90;99.90;;;;;;5055172;28;20176;-47
2023/10/07 06:51:58;;;;;;;11.70;4.33;;;14.90;99.90;;;;;;5036892;28;20237;-47
2023/10/07 06:54:32;;;;;;;9.07;4.33;;;15.00;99.90;;;;;;5055797;28;20156;-47
2023/10/07 06:57:01;;;;;;;16.63;4.30;;;15.00;99.90;;;;;;5046053;28;20203;-47
2023/10/07 06:59:27;;;;;;;8.33;3.83;;;15.00;99.90;;;;;;5037518;28;20208;-48
2023/10/07 07:02:11;;;;;;;10.10;3.90;;;15.10;99.90;;;;;;5055031;28;20172;-47
2023/10/07 07:04:41;;;;;;;8.80;4.13;;;15.20;99.90;;;;;;5035655;28;20241;-48
2023/10/07 07:07:11;;;;;;;10.43;3.83;;;15.30;99.90;;;;;;5055127;28;20184;-47
2023/10/07 07:12:26;;;;;;;9.87;3.80;;;15.30;99.90;;;;;;5037872;28;20535;-46
2023/10/07 07:15:26;;;;;;;10.13;3.67;;;15.30;99.90;;;;;;5054096;28;20156;-47
2023/10/07 07:24:03;;;;;;;10.47;4.03;;;15.40;99.90;;;;;;5054402;28;20168;-48
2023/10/07 07:29:51;;;;;;;9.83;3.90;;;15.40;99.90;;;;;;5053983;28;20671;-48
2023/10/07 07:32:18;;;;;;;10.27;3.77;;;15.50;99.90;;;;;;5036465;28;20200;-48
2023/10/07 07:34:45;;;;;;;7.50;3.53;;;15.50;99.90;;;;;;5054081;28;20172;-47
2023/10/07 07:37:14;;;;;;;6.70;3.80;;;15.50;99.90;;;;;;5053825;28;20183;-48
2023/10/07 07:45:15;;;;;;;8.70;3.60;;;15.60;99.90;;;;;;5006349;28;20687;-87
2023/10/07 07:47:42;;;;;;;7.87;3.97;;;15.50;99.90;;;;;;4976060;28;20217;-85
2023/10/07 07:50:09;;;;;;;7.20;3.93;;;15.60;99.90;;;;;;5009164;28;20213;-88
2023/10/07 07:52:34;;;;;;;8.13;3.70;;;15.60;99.90;;;;;;5007895;28;20200;-89
2023/10/07 07:55:00;;;;;;;9.90;4.00;;;15.50;99.90;;;;;;5007976;28;20178;-88
2023/10/07 07:57:27;;;;;;;11.10;3.47;;;15.60;99.90;;;;;;5022507;28;20186;-86
2023/10/07 07:59:53;;;;;;;8.33;3.77;;;15.90;99.90;;;;;;5006352;28;20216;-88
2023/10/07 08:02:24;;;;;;;11.80;3.93;;;15.60;99.90;;;;;;5023056;28;20186;-89
2023/10/07 08:04:50;;;;;;;9.33;4.00;;;15.60;99.90;;;;;;5006687;28;20262;-87
2023/10/07 08:07:24;;;;;;;8.47;3.40;;;15.60;99.90;;;;;;5007547;28;20194;-87
2023/10/07 08:09:57;;;;;;;9.13;3.70;;;15.60;99.90;;;;;;5006344;28;20201;-89
2023/10/07 08:12:30;;;;;;;10.20;3.67;;;15.60;99.90;;;;;;5004974;28;20182;-88
2023/10/07 08:15:05;;;;;;;8.27;4.20;;;15.50;99.90;;;;;;5021836;28;20182;-88
2023/10/07 08:17:31;;;;;;;10.63;3.77;;;15.70;99.90;;;;;;5005694;28;20648;-87
2023/10/07 08:20:07;;;;;;;6.43;3.30;;;15.80;99.90;;;;;;5008412;28;20305;-88
2023/10/07 08:22:33;;;;;;;9.00;4.00;;;15.90;99.90;;;;;;5005569;28;20256;-88
2023/10/07 08:25:00;;;;;;;10.83;4.13;;;15.90;99.90;;;;;;5005612;28;20205;-89
2023/10/07 08:27:44;;;;;;;9.60;3.80;;;16.50;99.90;;;;;;5005456;28;20170;-89
2023/10/07 08:30:14;;;;;;;16.00;4.10;;;16.10;99.90;;;;;;5008677;28;20205;-89
2023/10/07 08:32:47;;;;;;;7.10;3.50;;;16.20;99.90;;;;;;5010015;28;20180;-87
2023/10/07 08:35:16;;;;;;;9.97;4.10;;;16.30;99.90;;;;;;5008380;28;20196;-89
2023/10/07 08:37:46;;;;;;;9.37;3.83;;;16.20;99.90;;;;;;5027986;28;20267;-87
2023/10/07 08:40:27;;;;;;;10.13;3.00;;;16.60;99.90;;;;;;5012511;28;20198;-89
2023/10/07 08:42:59;;;;;;;8.90;3.67;;;16.50;99.90;;;;;;5012425;28;20167;-87
2023/10/07 08:45:45;;;;;;;6.67;3.67;;;16.50;99.90;;;;;;5025928;28;20320;-87
2023/10/07 08:48:15;;;;;;;11.27;3.90;;;16.70;99.90;;;;;;5013394;28;20229;-87
2023/10/07 08:50:58;;;;;;;9.20;3.63;;;16.70;99.90;;;;;;5011318;28;20178;-88
2023/10/07 08:53:28;;;;;;;8.00;3.57;;;16.80;99.90;;;;;;5011688;28;20159;-88
2023/10/07 08:56:00;;;;;;;9.70;3.37;;;16.70;99.90;;;;;;5011329;28;20197;-87
2023/10/07 08:58:29;;;;;;;12.73;3.97;;;16.70;99.90;;;;;;5011996;28;20198;-89
2023/10/07 09:00:56;;;;;;;8.00;4.07;;;16.70;99.90;;;;;;5011609;28;20220;-87
2023/10/07 09:03:26;;;;;;;9.73;3.57;;;16.80;99.90;;;;;;5010214;28;20189;-87
2023/10/07 09:05:53;;;;;;;8.73;4.00;;;16.80;99.90;;;;;;5008320;28;20194;-88
2023/10/07 09:08:22;;;;;;;6.23;3.80;;;17.20;99.90;;;;;;5006848;28;20202;-88
2023/10/07 09:10:51;;;;;;;8.77;3.83;;;17.00;99.90;;;;;;5006534;28;20182;-89
2023/10/07 09:13:27;;;;;;;10.00;3.70;;;16.90;99.90;;;;;;5008764;28;20174;-87
2023/10/07 09:15:59;;;;;;;7.73;3.53;;;16.90;99.90;;;;;;5023364;28;20181;-88
2023/10/07 09:18:31;;;;;;;7.77;3.97;;;16.80;99.90;;;;;;5007425;28;20631;-87
2023/10/07 09:20:57;;;;;;;6.93;3.97;;;17.00;99.90;;;;;;5007212;28;20159;-88
2023/10/07 09:23:35;;;;;;;10.97;3.40;;;17.10;99.90;;;;;;5007803;28;20185;-88
2023/10/07 09:26:16;;;;;;;9.07;3.93;;;17.10;99.90;;;;;;5006776;28;20186;-88
2023/10/07 09:28:46;;;;;;;12.17;4.10;;;17.30;99.90;;;;;;5009467;28;20196;-86
2023/10/07 09:31:15;;;;;;;10.07;3.80;;;17.40;99.90;;;;;;5007586;28;20189;-89
2023/10/07 09:33:41;;;;;;;7.80;3.40;;;17.60;99.90;;;;;;5008251;28;20177;-88
2023/10/07 09:41:37;;;;;;;7.67;2.67;;;17.70;99.90;;;;;;5007804;28;20178;-88
2023/10/07 09:44:12;;;;;;;9.50;3.70;;;17.80;99.90;;;;;;5007408;28;20189;-88
2023/10/07 09:46:40;;;;;;;7.27;3.20;;;17.80;99.90;;;;;;5022730;28;20162;-89
2023/10/07 09:49:07;;;;;;;9.47;3.17;;;17.90;99.90;;;;;;5008303;28;20573;-89
2023/10/07 09:51:44;;;;;;;6.70;3.27;;;18.00;99.90;;;;;;5007557;28;20186;-88
2023/10/07 09:54:47;;;;;;;6.57;3.10;;;18.10;99.90;;;;;;5005897;28;20177;-87
2023/10/07 09:57:42;;;;;;;8.53;3.10;;;18.20;99.90;;;;;;5008489;28;20166;-88
2023/10/07 10:00:38;;;;;;;4.90;3.00;;;18.30;99.90;;;;;;5007106;28;20274;-87
2023/10/07 10:03:33;;;;;;;6.10;2.80;;;18.40;99.90;;;;;;5006521;28;20154;-87
2023/10/07 10:06:16;;;;;;;5.90;3.33;;;18.50;99.90;;;;;;5004737;28;20233;-87
2023/10/07 10:08:59;;;;;;;5.90;3.17;;;18.60;99.90;;;;;;5005671;28;20195;-87
2023/10/07 10:11:46;;;;;;;7.13;3.17;;;18.70;99.90;;;;;;5004978;28;20178;-89
2023/10/07 10:17:11;;;;;;;5.87;3.10;;;18.90;99.90;;;;;;5007019;28;20206;-88
2023/10/07 10:19:56;;;;;;;9.87;2.77;;;19.00;99.90;;;;;;5011050;28;20212;-87
2023/10/07 10:22:22;;;;;;;7.60;3.03;;;19.00;99.90;;;;;;5011972;28;20187;-88
2023/10/07 10:24:49;;;;;;;5.53;2.53;;;19.10;99.90;;;;;;5004124;28;20202;-87
2023/10/07 10:27:17;;;;;;;9.83;3.03;;;19.20;99.90;;;;;;5004394;28;20224;-89
2023/10/07 10:29:55;;;;;;;5.50;2.47;;;19.30;99.90;;;;;;5008097;28;20226;-88
2023/10/07 10:32:34;;;;;;;8.57;3.30;;;19.40;99.90;;;;;;5009613;28;20189;-87
2023/10/07 10:35:03;;;;;;;6.43;2.77;;;19.40;99.90;;;;;;5008783;28;20182;-88
2023/10/07 10:37:30;;;;;;;9.17;2.97;;;19.50;99.90;;;;;;5008117;28;20178;-89
2023/10/07 10:39:57;;;;;;;7.50;2.80;;;19.60;99.90;;;;;;5005939;28;20281;-88
2023/10/07 10:42:24;;;;;;;6.90;2.77;;;19.70;99.90;;;;;;5006936;28;20662;-89
2023/10/07 10:44:52;;;;;;;8.27;2.60;;;20.00;99.90;;;;;;5022618;28;20221;-89
2023/10/07 10:47:21;;;;;;;5.30;3.00;;;20.00;99.90;;;;;;5007541;28;20182;-87
2023/10/07 10:49:54;;;;;;;7.67;3.00;;;20.10;99.90;;;;;;5009104;28;20190;-88
2023/10/07 10:52:20;;;;;;;7.17;2.87;;;19.90;99.90;;;;;;5008980;28;20217;-89
2023/10/07 10:54:45;;;;;;;9.47;2.73;;;21.00;99.90;;;;;;5031121;28;20178;-89
2023/10/07 10:57:19;;;;;;;7.77;2.83;;;20.10;99.90;;;;;;5007648;28;20213;-89
2023/10/07 10:59:47;;;;;;;6.27;2.80;;;20.20;99.90;;;;;;5007313;28;20205;-89
2023/10/07 11:02:20;;;;;;;9.60;3.27;;;20.50;99.90;;;;;;5009080;28;20242;-87
2023/10/07 11:04:50;;;;;;;6.87;3.13;;;20.20;99.90;;;;;;5006931;28;20233;-89
2023/10/07 11:07:18;;;;;;;6.50;2.80;;;21.70;99.90;;;;;;5007624;28;20165;-87
2023/10/07 11:09:48;;;;;;;8.50;3.07;;;20.20;99.90;;;;;;5006622;28;20580;-88
2023/10/07 11:12:16;;;;;;;5.37;2.87;;;20.30;99.90;;;;;;5006528;28;20631;-88
2023/10/07 11:14:43;;;;;;;7.50;3.50;;;20.40;99.90;;;;;;5007206;28;20262;-88
2023/10/07 11:17:12;;;;;;;11.10;3.27;;;20.50;99.90;;;;;;5007084;28;20186;-87
2023/10/07 11:19:47;;;;;;;7.00;2.93;;;20.50;99.90;;;;;;5023946;28;20224;-89
2023/10/07 11:22:21;;;;;;;9.90;3.20;;;20.50;99.90;;;;;;5009237;28;20174;-88
2023/10/07 11:24:49;;;;;;;7.73;3.20;;;20.60;99.90;;;;;;5008624;28;20213;-86
2023/10/07 11:27:16;;;;;;;7.60;3.30;;;20.80;99.90;;;;;;5007280;28;20174;-88
2023/10/07 11:29:42;;;;;;;13.00;3.80;;;20.70;99.90;;;;;;5007875;28;20194;-89
2023/10/07 11:32:08;;;;;;;6.53;2.97;;;20.90;99.90;;;;;;5007767;28;20186;-88
2023/10/07 11:34:38;;;;;;;5.50;2.43;;;21.00;99.90;;;;;;5007841;28;20174;-88
2023/10/07 11:37:09;;;;;;;7.30;3.20;;;20.90;99.90;;;;;;5006316;28;20178;-87
2023/10/07 11:39:47;;;;;;;5.87;3.00;;;22.30;99.90;;;;;;5006618;28;20205;-87
2023/10/07 11:42:22;;;;;;;5.60;3.23;;;21.10;99.90;;;;;;5006563;28;20265;-87
2023/10/07 11:44:54;;;;;;;6.20;3.00;;;21.10;99.90;;;;;;5005998;28;20220;-88
2023/10/07 11:47:21;;;;;;;6.70;2.77;;;21.50;99.90;;;;;;5007120;28;20179;-88
2023/10/07 11:49:48;;;;;;;6.97;2.80;;;21.20;99.90;;;;;;5008082;28;20194;-86
2023/10/07 11:52:19;;;;;;;8.20;2.97;;;21.40;99.90;;;;;;5008571;28;20202;-87
2023/10/07 11:54:46;;;;;;;7.73;2.83;;;21.50;98.90;;;;;;5007407;28;20162;-88
2023/10/07 11:57:13;;;;;;;6.07;3.10;;;21.50;99.90;;;;;;5005775;28;20193;-88
2023/10/07 11:59:41;;;;;;;6.83;2.93;;;21.90;99.90;;;;;;5006942;28;20231;-86
2023/10/07 12:02:11;;;;;;;8.47;2.60;;;21.60;99.90;;;;;;5006021;28;20666;-86
2023/10/07 12:04:41;;;;;;;7.33;2.53;;;22.20;99.10;;;;;;5006171;28;20232;-88
2023/10/07 12:07:08;;;;;;;5.40;2.70;;;22.40;99.90;;;;;;5005231;28;20154;-89
2023/10/07 12:09:34;;;;;;;5.07;2.50;;;22.20;96.00;;;;;;5006280;28;20198;-89
2023/10/07 12:12:02;;;;;;;5.73;2.70;;;21.70;99.90;;;;;;5004774;28;20186;-89
2023/10/07 12:14:28;;;;;;;4.20;2.03;;;22.00;96.40;;;;;;5005127;28;20178;-89
2023/10/07 12:16:55;;;;;;;4.13;2.53;;;21.90;99.90;;;;;;5005979;28;20242;-87
2023/10/07 12:19:21;;;;;;;3.97;2.30;;;22.20;99.90;;;;;;5008737;28;20202;-88
2023/10/07 12:21:49;;;;;;;4.87;2.70;;;22.70;90.90;;;;;;5007840;28;20245;-88
2023/10/07 12:24:16;;;;;;;6.37;2.73;;;22.00;95.90;;;;;;5008953;28;20178;-90
2023/10/07 12:26:51;;;;;;;5.77;2.50;;;22.10;93.90;;;;;;5009219;28;20174;-87
2023/10/07 12:29:19;;;;;;;6.50;2.50;;;22.10;82.20;;;;;;5008797;28;20256;-89
2023/10/07 12:31:45;;;;;;;3.77;2.23;;;22.10;99.90;;;;;;5024940;28;20255;-86
2023/10/07 12:34:13;;;;;;;5.03;2.60;;;22.20;92.70;;;;;;5009925;28;20202;-88
2023/10/07 12:36:39;;;;;;;6.23;2.30;;;22.20;67.10;;;;;;5024467;28;20182;-88
2023/10/07 12:39:13;;;;;;;5.63;2.30;;;22.30;93.50;;;;;;5009744;28;20261;-87
2023/10/07 12:41:40;;;;;;;6.73;2.73;;;22.30;99.90;;;;;;5025625;28;20192;-87
2023/10/07 12:44:09;;;;;;;4.23;2.33;;;22.30;88.00;;;;;;5024405;28;20186;-87
2023/10/07 12:46:39;;;;;;;4.40;2.60;;;22.40;95.00;;;;;;5007999;28;20163;-88
2023/10/07 12:49:09;;;;;;;8.23;2.77;;;22.40;98.90;;;;;;5006996;28;20194;-89
2023/10/07 12:51:40;;;;;;;4.57;2.60;;;22.50;99.90;;;;;;5005695;28;20253;-89
2023/10/07 12:54:10;;;;;;;6.53;3.17;;;22.60;86.20;;;;;;5005808;28;20190;-89
2023/10/07 12:56:42;;;;;;;5.47;2.77;;;22.60;79.50;;;;;;5004398;28;20174;-87
2023/10/07 12:59:18;;;;;;;4.60;2.77;;;22.70;99.90;;;;;;5004943;28;20245;-89
2023/10/07 13:01:51;;;;;;;5.50;2.70;;;22.70;99.90;;;;;;5005850;28;20158;-89
2023/10/07 13:04:29;;;;;;;5.77;2.50;;;22.60;87.70;;;;;;5004062;28;20557;-88
2023/10/07 13:07:00;;;;;;;4.43;2.17;;;22.60;93.90;;;;;;5004688;28;20170;-89
2023/10/07 13:09:33;;;;;;;7.20;2.57;;;22.70;96.50;;;;;;5003225;28;20273;-89
2023/10/07 13:11:59;;;;;;;6.70;2.70;;;22.70;99.90;;;;;;5004704;28;20250;-89
2023/10/07 13:14:28;;;;;;;5.10;2.43;;;22.70;99.90;;;;;;5020703;28;20178;-90
2023/10/07 13:16:58;;;;;;;5.53;2.80;;;22.70;90.80;;;;;;5007777;28;20190;-88
2023/10/07 13:19:27;;;;;;;10.10;3.07;;;22.80;39.90;;;;;;5006726;28;20202;-90
2023/10/07 13:22:01;;;;;;;4.37;2.57;;;22.90;82.90;;;;;;5007173;28;20187;-88
2023/10/07 13:24:27;;;;;;;4.53;2.20;;;22.80;51.10;;;;;;5008335;28;20190;-90
2023/10/07 13:26:55;;;;;;;9.30;2.80;;;22.90;85.00;;;;;;5014898;28;20175;-87
2023/10/07 13:29:20;;;;;;;6.10;2.40;;;22.90;29.40;;;;;;5028843;28;20315;-89
2023/10/07 13:31:46;;;;;;;5.20;2.57;;;22.90;86.80;;;;;;5012216;28;20208;-88
2023/10/07 13:34:14;;;;;;;4.13;2.37;;;22.90;39.70;;;;;;5028466;28;20186;-89
2023/10/07 13:36:42;;;;;;;6.83;2.80;;;22.90;76.80;;;;;;5012016;28;20736;-86
2023/10/07 13:39:17;;;;;;;7.90;2.87;;;22.90;34.00;;;;;;5029024;28;20202;-88
2023/10/07 13:41:47;;;;;;;4.53;2.40;;;22.90;58.80;;;;;;5013485;28;20586;-88
2023/10/07 13:44:16;;;;;;;4.77;2.57;;;22.90;50.40;;;;;;5028610;28;20253;-87
2023/10/07 13:46:42;;;;;;;5.33;2.77;;;22.90;39.20;;;;;;5011770;28;20205;-88
2023/10/07 13:49:14;;;;;;;5.50;2.67;;;22.90;47.90;;;;;;5013498;28;20200;-90
2023/10/07 13:51:43;;;;;;;8.17;3.17;;;22.90;53.90;;;;;;5011730;28;20186;-86
2023/10/07 13:54:22;;;;;;;6.63;3.00;;;22.90;43.50;;;;;;5006542;28;20213;-87
2023/10/07 13:56:53;;;;;;;5.97;2.60;;;22.90;53.20;;;;;;5005636;28;20174;-89
2023/10/07 13:59:18;;;;;;;5.70;2.90;;;22.90;62.90;;;;;;5005592;28;20237;-89
2023/10/07 14:01:46;;;;;;;4.30;2.27;;;23.00;45.40;;;;;;5004657;28;20670;-89
2023/10/07 14:04:15;;;;;;;5.47;3.10;;;23.00;29.30;;;;;;5005503;28;20174;-90
2023/10/07 14:06:42;;;;;;;6.73;2.80;;;23.00;26.60;;;;;;5004948;28;20240;-89
2023/10/07 14:09:15;;;;;;;4.60;2.60;;;22.90;47.20;;;;;;5005108;28;20206;-89
2023/10/07 14:11:45;;;;;;;4.40;2.70;;;22.90;30.70;;;;;;5004755;28;20158;-90
2023/10/07 14:14:11;;;;;;;3.30;2.47;;;22.90;45.70;;;;;;5008922;28;20175;-89
2023/10/07 14:16:37;;;;;;;10.97;3.10;;;22.90;46.90;;;;;;5012893;28;20182;-86
2023/10/07 14:19:06;;;;;;;3.90;2.60;;;22.90;40.90;;;;;;5027503;28;20206;-88
2023/10/07 14:21:35;;;;;;;6.93;3.00;;;22.90;53.00;;;;;;5010576;28;20179;-88
2023/10/07 14:24:04;;;;;;;5.20;2.90;;;22.80;55.70;;;;;;5011803;28;20197;-87
2023/10/07 14:26:34;;;;;;;6.50;3.03;;;22.90;53.40;;;;;;5010877;28;20190;-88
2023/10/07 14:29:02;;;;;;;5.73;2.80;;;22.90;41.00;;;;;;5010405;28;20190;-89